Terminal Aerodrome Forecast
Issued by NWS

Home | Current Version | Previous Version | Text Only | Print | Product List | Glossary On
Versions: 1 2 3 4 5 6 7 8 9 10 11 12 13 14 15 16
000
FTUS43 KIWX 251424 AAA
TAFSBN
TAF AMD
KSBN 251424Z 2514/2612 22010KT P6SM SKC
     FM251530 24007KT P6SM BKN015 OVC040
     FM251700 26007KT P6SM VCTS BKN030CB
     FM252000 28007KT P6SM OVC040
     FM252100 31008KT P6SM SCT050 BKN250
     FM260000 29003KT P6SM BKN250=

USA.gov is the U.S. government's official web portal to all federal, state and local government web resources and services.